• Join FlightAware (Why Join?)
  • Login
  • US Flag 
10:13PM EDT


 

Airport Tracker/Info


-or-


 

Live Flight TrackerFlight Track Log ✈ N313CR ✈ 02-May-2013 ✈ KTEB - KFNT

Flight Track Log - Related Links

Times and Time Zones

All times are in EDT time to prevent confusion due to time zone crossing. See the N313CR flight status page for this flight to view local times or setup timezone preferences in your user account.

Time Position Orientation Groundspeed Altitude Reporting Facility
EDT Latitude Longitude Course Direction KTS MPH feet Rate Location/Type
06:57AM 40.8833 -74.0500 323° Northwest 198 228 1,600  Level New York TRACON
06:58AM 40.9167 -74.0833 323° Northwest 244 281 3,800 2,760 Climbing New York TRACON
06:59AM 40.9167 -74.1833 270° West 262 302 6,700 2,220 Climbing New York TRACON
07:00AM 40.9000 -74.2833 258° West 289 333 8,100 2,100 Climbing New York TRACON
07:01AM 40.9167 -74.3667 285° West 277 319 10,700 2,340 Climbing New York TRACON
07:02AM 40.9689 -74.4508 309° West 283 326 13,300 1,920 Climbing New York Center
07:03AM 41.0308 -74.5339 315° West 278 320 15,000 1,380 Climbing New York Center
07:04AM 41.1036 -74.6011 325° Northwest 305 351 16,100 960 Climbing New York Center
07:05AM 41.1703 -74.6683 323° Northwest 330 380 17,000 1,080 Climbing New York Center
07:06AM 41.2486 -74.7503 322° Northwest 336 387 18,400 1,500 Climbing New York Center
07:07AM 41.3150 -74.8178 323° Northwest 336 387 20,100 1,860 Climbing New York Center
07:08AM 41.3878 -74.8856 325° Northwest 336 387 22,100 1,920 Climbing New York Center
07:09AM 41.4561 -74.9536 323° Northwest 328 377 23,900 1,380 Climbing New York Center
07:10AM 41.5308 -75.0219 326° Northwest 323 372 25,000 540 Climbing New York Center
07:11AM 41.5961 -75.1147 313° West 328 377 25,100 420 Climbing New York Center
07:12AM 41.6225 -75.2469 285° West 341 392 25,900 960 Climbing New York Center
07:13AM 41.6569 -75.3797 289° West 364 419 27,100 1,080 Climbing New York Center
07:14AM 41.6872 -75.5122 287° West 369 425 28,100 960 Climbing New York Center
07:15AM 41.7172 -75.6422 287° West 369 425 29,100 960 Climbing New York Center
07:16AM 41.7472 -75.7753 287° West 369 425 30,100 960 Climbing New York Center
07:17AM 41.7789 -75.9083 288° West 369 425 31,100 960 Climbing New York Center
07:18AM 41.8086 -76.0386 287° West 369 425 32,100 960 Climbing New York Center
07:19AM 41.8378 -76.1744 286° West 369 425 33,100 960 Climbing New York Center
07:20AM 41.8672 -76.3050 287° West 369 425 34,100 1,020 Climbing New York Center
07:21AM 41.8967 -76.4356 287° West 369 425 35,200 900 Climbing New York Center
07:22AM 41.9272 -76.5775 286° West 369 425 36,000 360 Climbing New York Center
07:23AM 41.9600 -76.7144 288° West 369 425 36,000  Level New York Center
07:24AM 42.0014 -76.9086 286° West 384 442 36,000  Level Cleveland Center
07:25AM 42.0328 -77.0494 287° West 389 448 36,000  Level Cleveland Center
07:26AM 42.0622 -77.1933 285° West 394 453 36,000  Level Cleveland Center
07:27AM 42.0956 -77.3369 287° West 394 453 36,000  Level Cleveland Center
07:28AM 42.1267 -77.4811 286° West 394 453 36,000  Level Cleveland Center
07:29AM 42.1556 -77.6253 285° West 394 453 36,000  Level Cleveland Center
07:30AM 42.1861 -77.7694 286° West 394 453 36,000  Level Cleveland Center
07:31AM 42.2167 -77.9086 287° West 394 453 36,000  Level Cleveland Center
07:32AM 42.2447 -78.0503 285° West 394 453 36,000  Level Cleveland Center
07:33AM 42.2772 -78.2061 286° West 394 453 36,000  Level Cleveland Center
07:34AM 42.3072 -78.3511 286° West 394 453 36,000  Level Cleveland Center
07:35AM 42.3372 -78.4961 286° West 394 453 36,000  Level Cleveland Center
07:36AM 42.3667 -78.6414 285° West 394 453 36,000  Level Cleveland Center
07:37AM 42.3942 -78.7811 285° West 394 453 36,000  Level Cleveland Center
07:38AM 42.4233 -78.9264 285° West 394 453 36,000  Level Cleveland Center
07:39AM 42.4503 -79.0722 284° West 394 453 36,000  Level Cleveland Center
07:40AM 42.4814 -79.2178 286° West 394 453 36,000  Level Cleveland Center
07:41AM 42.4997 -79.3667 280° West 394 453 36,000  Level Cleveland Center
07:42AM 42.5053 -79.5158 273° West 394 453 36,000  Level Cleveland Center
07:43AM 42.5108 -79.6650 273° West 389 448 36,000  Level Cleveland Center
07:44AM 42.5203 -79.8086 275° West 389 448 36,000  Level Cleveland Center
07:45AM 42.5253 -79.9578 273° West 389 448 36,000  Level Cleveland Center
07:46AM 42.5300 -80.0931 273° West 394 453 36,000 -240 Level Cleveland Center
07:47AM 42.5369 -80.2394 274° West 389 448 35,600 -780 Descending Cleveland Center
07:48AM 42.5414 -80.3803 273° West 389 448 34,500 -1,140 Descending Cleveland Center
07:49AM 42.5478 -80.5269 273° West 389 448 33,400 -1,140 Descending Cleveland Center
07:50AM 42.5519 -80.6733 272° West 384 442 32,300 -720 Descending Cleveland Center
07:51AM 42.5578 -80.8228 273° West 384 442 32,000 -600 Descending Cleveland Center
07:52AM 42.5658 -80.9864 274° West 389 448 31,100 -1,020 Descending Cleveland Center
07:53AM 42.5714 -81.1358 273° West 389 448 30,000 -1,140 Descending Cleveland Center
07:54AM 42.5747 -81.2853 272° West 394 453 28,900 -1,140 Descending Cleveland Center
07:55AM 42.5800 -81.4403 273° West 407 468 27,800 -1,200 Descending Cleveland Center
07:56AM 42.6058 -81.5875 283° West 407 468 26,600 -1,200 Descending Cleveland Center
07:57AM 42.6317 -81.7317 284° West 402 463 25,500 -1,200 Descending Cleveland Center
07:58AM 42.6533 -81.8536 284° West 389 448 24,200 -1,440 Descending Cleveland Center
07:59AM 42.6786 -81.9953 284° West 384 442 22,700 -1,500 Descending Cleveland Center
08:00AM 42.7000 -82.1314 282° West 384 442 21,200 -1,680 Descending Cleveland Center
08:01AM 42.7231 -82.2647 283° West 374 430 19,400 -1,800 Descending Cleveland Center
08:02AM 42.7439 -82.3925 283° West 363 418 17,700 -1,740 Descending Cleveland Center
08:03AM 42.7650 -82.5147 283° West 351 404 16,000 -900 Descending Cleveland Center
08:04AM 42.7878 -82.6428 284° West 346 398 16,000  Level Cleveland Center